sensor_id;sensor_type;location;lat;lon;timestamp;temperature;humidity
7648;DHT22;3866;48.020;11.720;2023-04-24T00:00:54;9.20;99.90
7648;DHT22;3866;48.020;11.720;2023-04-24T00:03:22;9.10;99.90
7648;DHT22;3866;48.020;11.720;2023-04-24T00:05:49;9.20;99.90
7648;DHT22;3866;48.020;11.720;2023-04-24T00:08:18;9.10;99.90
7648;DHT22;3866;48.020;11.720;2023-04-24T00:10:45;9.20;99.90
7648;DHT22;3866;48.020;11.720;2023-04-24T00:13:12;9.00;99.90
7648;DHT22;3866;48.020;11.720;2023-04-24T00:15:39;9.10;99.90
7648;DHT22;3866;48.020;11.720;2023-04-24T00:18:06;9.10;99.90
7648;DHT22;3866;48.020;11.720;2023-04-24T00:20:32;9.10;99.90
7648;DHT22;3866;48.020;11.720;2023-04-24T00:23:01;9.10;99.90
7648;DHT22;3866;48.020;11.720;2023-04-24T00:25:29;8.90;99.90
7648;DHT22;3866;48.020;11.720;2023-04-24T00:27:56;8.90;99.90
7648;DHT22;3866;48.020;11.720;2023-04-24T00:30:23;8.90;99.90
7648;DHT22;3866;48.020;11.720;2023-04-24T00:32:49;8.90;99.90
7648;DHT22;3866;48.020;11.720;2023-04-24T00:35:16;8.80;99.90
7648;DHT22;3866;48.020;11.720;2023-04-24T00:37:45;8.80;99.90
7648;DHT22;3866;48.020;11.720;2023-04-24T00:40:12;8.70;99.90
7648;DHT22;3866;48.020;11.720;2023-04-24T00:42:41;8.80;99.90
7648;DHT22;3866;48.020;11.720;2023-04-24T00:45:09;8.80;99.90
7648;DHT22;3866;48.020;11.720;2023-04-24T00:47:36;8.70;99.90
7648;DHT22;3866;48.020;11.720;2023-04-24T00:50:04;8.80;99.90
7648;DHT22;3866;48.020;11.720;2023-04-24T00:52:31;8.80;99.90
7648;DHT22;3866;48.020;11.720;2023-04-24T00:54:58;8.70;99.90
7648;DHT22;3866;48.020;11.720;2023-04-24T00:57:26;8.70;99.90
7648;DHT22;3866;48.020;11.720;2023-04-24T00:59:55;8.80;99.90
7648;DHT22;3866;48.020;11.720;2023-04-24T01:02:24;8.80;99.90
7648;DHT22;3866;48.020;11.720;2023-04-24T01:04:51;8.90;99.90
7648;DHT22;3866;48.020;11.720;2023-04-24T01:07:19;8.80;99.90
7648;DHT22;3866;48.020;11.720;2023-04-24T01:09:48;8.70;99.90
7648;DHT22;3866;48.020;11.720;2023-04-24T01:12:17;8.80;99.90
7648;DHT22;3866;48.020;11.720;2023-04-24T01:14:44;8.80;99.90
7648;DHT22;3866;48.020;11.720;2023-04-24T01:17:13;8.80;99.90
7648;DHT22;3866;48.020;11.720;2023-04-24T01:19:40;8.70;99.90
7648;DHT22;3866;48.020;11.720;2023-04-24T01:22:13;8.70;99.90
7648;DHT22;3866;48.020;11.720;2023-04-24T01:24:40;8.70;99.90
7648;DHT22;3866;48.020;11.720;2023-04-24T01:27:08;8.80;99.90
7648;DHT22;3866;48.020;11.720;2023-04-24T01:29:35;8.70;99.90
7648;DHT22;3866;48.020;11.720;2023-04-24T01:32:02;8.70;99.90
7648;DHT22;3866;48.020;11.720;2023-04-24T01:34:29;8.60;99.90
7648;DHT22;3866;48.020;11.720;2023-04-24T01:36:56;8.70;99.90
7648;DHT22;3866;48.020;11.720;2023-04-24T01:39:25;8.70;99.90
7648;DHT22;3866;48.020;11.720;2023-04-24T01:41:53;8.70;99.90
7648;DHT22;3866;48.020;11.720;2023-04-24T01:44:21;8.70;99.90
7648;DHT22;3866;48.020;11.720;2023-04-24T01:46:47;8.70;99.90
7648;DHT22;3866;48.020;11.720;2023-04-24T01:49:14;8.70;99.90
7648;DHT22;3866;48.020;11.720;2023-04-24T01:51:41;8.70;99.90
7648;DHT22;3866;48.020;11.720;2023-04-24T01:54:08;8.70;99.90
7648;DHT22;3866;48.020;11.720;2023-04-24T01:56:40;8.70;99.90
7648;DHT22;3866;48.020;11.720;2023-04-24T01:59:09;8.70;99.90
7648;DHT22;3866;48.020;11.720;2023-04-24T02:01:36;8.70;99.90
7648;DHT22;3866;48.020;11.720;2023-04-24T02:04:04;8.70;99.90
7648;DHT22;3866;48.020;11.720;2023-04-24T02:06:31;8.70;99.90
7648;DHT22;3866;48.020;11.720;2023-04-24T02:08:58;8.60;99.90
7648;DHT22;3866;48.020;11.720;2023-04-24T02:11:25;8.70;99.90
7648;DHT22;3866;48.020;11.720;2023-04-24T02:13:53;8.70;99.90
7648;DHT22;3866;48.020;11.720;2023-04-24T02:16:20;8.70;99.90
7648;DHT22;3866;48.020;11.720;2023-04-24T02:18:47;8.70;99.90
7648;DHT22;3866;48.020;11.720;2023-04-24T02:21:14;8.70;99.90
7648;DHT22;3866;48.020;11.720;2023-04-24T02:23:41;8.70;99.90
7648;DHT22;3866;48.020;11.720;2023-04-24T02:26:08;8.70;99.90
7648;DHT22;3866;48.020;11.720;2023-04-24T02:28:35;8.60;99.90
7648;DHT22;3866;48.020;11.720;2023-04-24T02:31:03;8.60;99.90
7648;DHT22;3866;48.020;11.720;2023-04-24T02:33:30;8.60;99.90
7648;DHT22;3866;48.020;11.720;2023-04-24T02:35:57;8.60;99.90
7648;DHT22;3866;48.020;11.720;2023-04-24T02:38:25;8.60;99.90
7648;DHT22;3866;48.020;11.720;2023-04-24T02:40:51;8.60;99.90
7648;DHT22;3866;48.020;11.720;2023-04-24T02:43:18;8.60;99.90
7648;DHT22;3866;48.020;11.720;2023-04-24T02:45:45;8.50;99.90
7648;DHT22;3866;48.020;11.720;2023-04-24T02:48:14;8.60;99.90
7648;DHT22;3866;48.020;11.720;2023-04-24T02:50:40;8.50;99.90
7648;DHT22;3866;48.020;11.720;2023-04-24T02:53:07;8.50;99.90
7648;DHT22;3866;48.020;11.720;2023-04-24T02:55:35;8.40;99.90
7648;DHT22;3866;48.020;11.720;2023-04-24T02:58:02;8.40;99.90
7648;DHT22;3866;48.020;11.720;2023-04-24T03:00:29;8.40;99.90
7648;DHT22;3866;48.020;11.720;2023-04-24T03:02:56;8.40;99.90
7648;DHT22;3866;48.020;11.720;2023-04-24T03:05:24;8.30;99.90
7648;DHT22;3866;48.020;11.720;2023-04-24T03:07:52;8.30;99.90
7648;DHT22;3866;48.020;11.720;2023-04-24T03:10:19;8.30;99.90
7648;DHT22;3866;48.020;11.720;2023-04-24T03:12:48;8.30;99.90
7648;DHT22;3866;48.020;11.720;2023-04-24T03:15:15;8.20;99.90
7648;DHT22;3866;48.020;11.720;2023-04-24T03:17:41;8.20;99.90
7648;DHT22;3866;48.020;11.720;2023-04-24T03:20:09;8.10;99.90
7648;DHT22;3866;48.020;11.720;2023-04-24T03:22:37;8.20;99.90
7648;DHT22;3866;48.020;11.720;2023-04-24T03:25:05;8.10;99.90
7648;DHT22;3866;48.020;11.720;2023-04-24T03:27:33;8.10;99.90
7648;DHT22;3866;48.020;11.720;2023-04-24T03:30:00;8.10;99.90
7648;DHT22;3866;48.020;11.720;2023-04-24T03:32:27;8.10;99.90
7648;DHT22;3866;48.020;11.720;2023-04-24T03:34:54;8.10;99.90
7648;DHT22;3866;48.020;11.720;2023-04-24T03:37:21;8.10;99.90
7648;DHT22;3866;48.020;11.720;2023-04-24T03:39:49;8.10;99.90
7648;DHT22;3866;48.020;11.720;2023-04-24T03:42:16;8.10;99.90
7648;DHT22;3866;48.020;11.720;2023-04-24T03:44:43;8.10;99.90
7648;DHT22;3866;48.020;11.720;2023-04-24T03:47:10;8.10;99.90
7648;DHT22;3866;48.020;11.720;2023-04-24T03:49:37;8.00;99.90
7648;DHT22;3866;48.020;11.720;2023-04-24T03:52:03;8.10;99.90
7648;DHT22;3866;48.020;11.720;2023-04-24T03:54:30;8.10;99.90
7648;DHT22;3866;48.020;11.720;2023-04-24T03:56:58;8.10;99.90
7648;DHT22;3866;48.020;11.720;2023-04-24T03:59:26;8.00;99.90
7648;DHT22;3866;48.020;11.720;2023-04-24T04:01:53;8.00;99.90
7648;DHT22;3866;48.020;11.720;2023-04-24T04:04:20;8.00;99.90
7648;DHT22;3866;48.020;11.720;2023-04-24T04:06:47;8.00;99.90
7648;DHT22;3866;48.020;11.720;2023-04-24T04:09:14;8.00;99.90
7648;DHT22;3866;48.020;11.720;2023-04-24T04:11:44;8.00;99.90
7648;DHT22;3866;48.020;11.720;2023-04-24T04:14:12;8.00;99.90
7648;DHT22;3866;48.020;11.720;2023-04-24T04:16:39;8.00;99.90
7648;DHT22;3866;48.020;11.720;2023-04-24T04:19:06;8.00;99.90
7648;DHT22;3866;48.020;11.720;2023-04-24T04:21:33;8.10;99.90
7648;DHT22;3866;48.020;11.720;2023-04-24T04:23:59;8.10;99.90
7648;DHT22;3866;48.020;11.720;2023-04-24T04:26:26;8.00;99.90
7648;DHT22;3866;48.020;11.720;2023-04-24T04:28:53;8.00;99.90
7648;DHT22;3866;48.020;11.720;2023-04-24T04:31:22;8.00;99.90
7648;DHT22;3866;48.020;11.720;2023-04-24T04:33:48;8.00;99.90
7648;DHT22;3866;48.020;11.720;2023-04-24T04:36:15;8.00;99.90
7648;DHT22;3866;48.020;11.720;2023-04-24T04:38:43;8.00;99.90
7648;DHT22;3866;48.020;11.720;2023-04-24T04:41:10;8.00;99.90
7648;DHT22;3866;48.020;11.720;2023-04-24T04:43:37;8.00;99.90
7648;DHT22;3866;48.020;11.720;2023-04-24T04:46:06;8.00;99.90
7648;DHT22;3866;48.020;11.720;2023-04-24T04:48:35;8.00;99.90
7648;DHT22;3866;48.020;11.720;2023-04-24T04:51:02;8.00;99.90
7648;DHT22;3866;48.020;11.720;2023-04-24T04:53:29;8.00;99.90
7648;DHT22;3866;48.020;11.720;2023-04-24T04:55:56;7.90;99.90
7648;DHT22;3866;48.020;11.720;2023-04-24T04:58:23;8.00;99.90
7648;DHT22;3866;48.020;11.720;2023-04-24T05:00:50;8.00;99.90
7648;DHT22;3866;48.020;11.720;2023-04-24T05:03:17;8.10;99.90
7648;DHT22;3866;48.020;11.720;2023-04-24T05:05:46;8.00;99.90
7648;DHT22;3866;48.020;11.720;2023-04-24T05:08:12;8.00;99.90
7648;DHT22;3866;48.020;11.720;2023-04-24T05:10:39;8.10;99.90
7648;DHT22;3866;48.020;11.720;2023-04-24T05:13:06;8.10;99.90
7648;DHT22;3866;48.020;11.720;2023-04-24T05:15:33;8.10;99.90
7648;DHT22;3866;48.020;11.720;2023-04-24T05:18:00;8.10;99.90
7648;DHT22;3866;48.020;11.720;2023-04-24T05:20:27;8.20;99.90
7648;DHT22;3866;48.020;11.720;2023-04-24T05:22:55;8.20;99.90
7648;DHT22;3866;48.020;11.720;2023-04-24T05:25:22;8.30;99.90
7648;DHT22;3866;48.020;11.720;2023-04-24T05:27:49;8.30;99.90
7648;DHT22;3866;48.020;11.720;2023-04-24T05:30:16;8.30;99.90
7648;DHT22;3866;48.020;11.720;2023-04-24T05:32:42;8.40;99.90
7648;DHT22;3866;48.020;11.720;2023-04-24T05:35:10;8.40;99.90
7648;DHT22;3866;48.020;11.720;2023-04-24T05:37:37;8.40;99.90
7648;DHT22;3866;48.020;11.720;2023-04-24T05:40:06;8.40;99.90
7648;DHT22;3866;48.020;11.720;2023-04-24T05:42:34;8.50;99.90
7648;DHT22;3866;48.020;11.720;2023-04-24T05:45:01;8.60;99.90
7648;DHT22;3866;48.020;11.720;2023-04-24T05:47:28;8.60;99.90
7648;DHT22;3866;48.020;11.720;2023-04-24T05:49:55;8.60;99.90
7648;DHT22;3866;48.020;11.720;2023-04-24T05:52:21;8.70;99.90
7648;DHT22;3866;48.020;11.720;2023-04-24T05:54:48;8.70;99.90
7648;DHT22;3866;48.020;11.720;2023-04-24T05:57:16;8.70;99.90
7648;DHT22;3866;48.020;11.720;2023-04-24T05:59:43;8.70;99.90
7648;DHT22;3866;48.020;11.720;2023-04-24T06:02:10;8.70;99.90
7648;DHT22;3866;48.020;11.720;2023-04-24T06:04:37;8.60;99.90
7648;DHT22;3866;48.020;11.720;2023-04-24T06:07:05;8.70;99.90
7648;DHT22;3866;48.020;11.720;2023-04-24T06:09:32;8.80;99.90
7648;DHT22;3866;48.020;11.720;2023-04-24T06:11:59;8.80;99.90
7648;DHT22;3866;48.020;11.720;2023-04-24T06:14:27;8.80;99.90
7648;DHT22;3866;48.020;11.720;2023-04-24T06:16:54;8.80;99.90
7648;DHT22;3866;48.020;11.720;2023-04-24T06:19:21;8.90;99.90
7648;DHT22;3866;48.020;11.720;2023-04-24T06:21:48;8.80;99.90
7648;DHT22;3866;48.020;11.720;2023-04-24T06:24:15;8.80;99.90
7648;DHT22;3866;48.020;11.720;2023-04-24T06:26:42;8.90;99.90
7648;DHT22;3866;48.020;11.720;2023-04-24T06:29:09;8.90;99.90
7648;DHT22;3866;48.020;11.720;2023-04-24T06:31:37;8.90;99.90
7648;DHT22;3866;48.020;11.720;2023-04-24T06:34:04;8.90;99.90
7648;DHT22;3866;48.020;11.720;2023-04-24T06:36:31;9.00;99.90
7648;DHT22;3866;48.020;11.720;2023-04-24T06:39:00;9.00;99.90
7648;DHT22;3866;48.020;11.720;2023-04-24T06:41:27;9.00;99.90
7648;DHT22;3866;48.020;11.720;2023-04-24T06:43:54;9.00;99.90
7648;DHT22;3866;48.020;11.720;2023-04-24T06:46:21;9.00;99.90
7648;DHT22;3866;48.020;11.720;2023-04-24T06:48:50;9.00;99.90
7648;DHT22;3866;48.020;11.720;2023-04-24T06:51:17;9.00;99.90
7648;DHT22;3866;48.020;11.720;2023-04-24T06:53:44;9.00;99.90
7648;DHT22;3866;48.020;11.720;2023-04-24T06:56:11;9.10;99.90
7648;DHT22;3866;48.020;11.720;2023-04-24T06:58:39;9.20;99.90
7648;DHT22;3866;48.020;11.720;2023-04-24T07:01:05;9.20;99.90
7648;DHT22;3866;48.020;11.720;2023-04-24T07:03:32;9.30;99.90
7648;DHT22;3866;48.020;11.720;2023-04-24T07:06:00;9.30;99.90
7648;DHT22;3866;48.020;11.720;2023-04-24T07:08:29;9.40;99.90
7648;DHT22;3866;48.020;11.720;2023-04-24T07:10:56;9.50;99.90
7648;DHT22;3866;48.020;11.720;2023-04-24T07:13:23;9.50;99.90
7648;DHT22;3866;48.020;11.720;2023-04-24T07:15:50;9.60;99.90
7648;DHT22;3866;48.020;11.720;2023-04-24T07:18:19;9.80;99.90
7648;DHT22;3866;48.020;11.720;2023-04-24T07:20:46;9.80;99.90
7648;DHT22;3866;48.020;11.720;2023-04-24T07:23:16;9.90;99.90
7648;DHT22;3866;48.020;11.720;2023-04-24T07:25:43;10.00;99.90
7648;DHT22;3866;48.020;11.720;2023-04-24T07:28:10;10.10;99.90
7648;DHT22;3866;48.020;11.720;2023-04-24T07:30:37;10.20;99.90
7648;DHT22;3866;48.020;11.720;2023-04-24T07:33:04;10.30;99.90
7648;DHT22;3866;48.020;11.720;2023-04-24T07:35:33;10.30;99.90
7648;DHT22;3866;48.020;11.720;2023-04-24T07:38:01;10.30;99.90
7648;DHT22;3866;48.020;11.720;2023-04-24T07:40:29;10.50;99.90
7648;DHT22;3866;48.020;11.720;2023-04-24T07:42:56;10.40;99.90
7648;DHT22;3866;48.020;11.720;2023-04-24T07:45:23;10.40;99.90
7648;DHT22;3866;48.020;11.720;2023-04-24T07:47:51;10.40;99.90
7648;DHT22;3866;48.020;11.720;2023-04-24T07:50:18;10.40;99.90
7648;DHT22;3866;48.020;11.720;2023-04-24T07:52:45;10.30;99.90
7648;DHT22;3866;48.020;11.720;2023-04-24T07:55:13;10.30;99.90
7648;DHT22;3866;48.020;11.720;2023-04-24T07:57:41;10.40;99.90
7648;DHT22;3866;48.020;11.720;2023-04-24T08:00:09;10.40;99.90
7648;DHT22;3866;48.020;11.720;2023-04-24T08:02:36;10.50;99.90
7648;DHT22;3866;48.020;11.720;2023-04-24T08:05:03;10.60;99.90
7648;DHT22;3866;48.020;11.720;2023-04-24T08:07:30;10.60;99.90
7648;DHT22;3866;48.020;11.720;2023-04-24T08:09:57;10.50;99.90
7648;DHT22;3866;48.020;11.720;2023-04-24T08:12:25;10.40;99.90
7648;DHT22;3866;48.020;11.720;2023-04-24T08:14:53;10.30;99.90
7648;DHT22;3866;48.020;11.720;2023-04-24T08:17:20;10.40;99.90
7648;DHT22;3866;48.020;11.720;2023-04-24T08:19:47;10.40;99.90
7648;DHT22;3866;48.020;11.720;2023-04-24T08:22:14;10.40;99.90
7648;DHT22;3866;48.020;11.720;2023-04-24T08:24:41;10.20;99.90
7648;DHT22;3866;48.020;11.720;2023-04-24T08:27:08;10.30;99.90
7648;DHT22;3866;48.020;11.720;2023-04-24T08:29:35;10.30;99.90
7648;DHT22;3866;48.020;11.720;2023-04-24T08:32:04;10.50;99.90
7648;DHT22;3866;48.020;11.720;2023-04-24T08:34:31;10.60;99.90
7648;DHT22;3866;48.020;11.720;2023-04-24T08:36:57;10.50;99.90
7648;DHT22;3866;48.020;11.720;2023-04-24T08:39:24;10.50;99.90
7648;DHT22;3866;48.020;11.720;2023-04-24T08:41:52;10.50;99.90
7648;DHT22;3866;48.020;11.720;2023-04-24T08:44:20;10.40;99.90
7648;DHT22;3866;48.020;11.720;2023-04-24T08:46:47;10.50;99.90
7648;DHT22;3866;48.020;11.720;2023-04-24T08:49:16;10.50;99.90
7648;DHT22;3866;48.020;11.720;2023-04-24T08:51:44;10.40;99.90
7648;DHT22;3866;48.020;11.720;2023-04-24T08:54:12;10.40;99.90
7648;DHT22;3866;48.020;11.720;2023-04-24T08:56:40;10.30;99.90
7648;DHT22;3866;48.020;11.720;2023-04-24T08:59:09;10.10;99.90
7648;DHT22;3866;48.020;11.720;2023-04-24T09:01:37;10.00;99.90
7648;DHT22;3866;48.020;11.720;2023-04-24T09:04:07;9.90;99.90
7648;DHT22;3866;48.020;11.720;2023-04-24T09:06:36;10.00;99.90
7648;DHT22;3866;48.020;11.720;2023-04-24T09:09:03;10.00;99.90
7648;DHT22;3866;48.020;11.720;2023-04-24T09:11:31;10.00;99.90
7648;DHT22;3866;48.020;11.720;2023-04-24T09:13:59;10.10;99.90
7648;DHT22;3866;48.020;11.720;2023-04-24T09:16:27;10.20;99.90
7648;DHT22;3866;48.020;11.720;2023-04-24T09:18:55;10.00;99.90
7648;DHT22;3866;48.020;11.720;2023-04-24T09:21:22;9.90;99.90
7648;DHT22;3866;48.020;11.720;2023-04-24T09:23:59;10.20;99.90
7648;DHT22;3866;48.020;11.720;2023-04-24T09:26:29;10.00;99.90
7648;DHT22;3866;48.020;11.720;2023-04-24T09:28:58;10.00;99.90
7648;DHT22;3866;48.020;11.720;2023-04-24T09:31:27;9.80;99.90
7648;DHT22;3866;48.020;11.720;2023-04-24T09:33:56;9.90;99.90
7648;DHT22;3866;48.020;11.720;2023-04-24T09:36:27;10.10;99.90
7648;DHT22;3866;48.020;11.720;2023-04-24T09:39:00;10.30;99.90
7648;DHT22;3866;48.020;11.720;2023-04-24T09:41:27;10.60;99.90
7648;DHT22;3866;48.020;11.720;2023-04-24T09:43:55;11.00;99.90
7648;DHT22;3866;48.020;11.720;2023-04-24T09:46:29;11.30;99.90
7648;DHT22;3866;48.020;11.720;2023-04-24T09:48:56;11.60;99.90
7648;DHT22;3866;48.020;11.720;2023-04-24T09:51:33;11.70;99.90
7648;DHT22;3866;48.020;11.720;2023-04-24T09:54:02;12.20;99.90
7648;DHT22;3866;48.020;11.720;2023-04-24T09:56:33;12.10;99.90
7648;DHT22;3866;48.020;11.720;2023-04-24T09:59:06;12.20;99.90
7648;DHT22;3866;48.020;11.720;2023-04-24T10:01:34;12.40;99.90
7648;DHT22;3866;48.020;11.720;2023-04-24T10:04:01;12.70;99.90
7648;DHT22;3866;48.020;11.720;2023-04-24T10:06:34;12.50;99.90
7648;DHT22;3866;48.020;11.720;2023-04-24T10:09:03;11.80;99.90
7648;DHT22;3866;48.020;11.720;2023-04-24T10:11:30;12.00;99.90
7648;DHT22;3866;48.020;11.720;2023-04-24T10:13:57;12.10;99.90
7648;DHT22;3866;48.020;11.720;2023-04-24T10:16:25;12.20;99.90
7648;DHT22;3866;48.020;11.720;2023-04-24T10:18:54;12.10;99.90
7648;DHT22;3866;48.020;11.720;2023-04-24T10:21:22;12.40;99.90
7648;DHT22;3866;48.020;11.720;2023-04-24T10:23:49;12.40;99.90
7648;DHT22;3866;48.020;11.720;2023-04-24T10:26:19;12.50;99.90
7648;DHT22;3866;48.020;11.720;2023-04-24T10:28:47;12.50;99.90
7648;DHT22;3866;48.020;11.720;2023-04-24T10:31:14;12.50;99.90
7648;DHT22;3866;48.020;11.720;2023-04-24T10:33:42;12.30;99.90
7648;DHT22;3866;48.020;11.720;2023-04-24T10:36:10;12.30;99.90
7648;DHT22;3866;48.020;11.720;2023-04-24T10:38:40;12.20;99.90
7648;DHT22;3866;48.020;11.720;2023-04-24T10:41:09;12.50;99.90
7648;DHT22;3866;48.020;11.720;2023-04-24T10:43:42;12.90;99.90
7648;DHT22;3866;48.020;11.720;2023-04-24T10:46:09;13.00;99.90
7648;DHT22;3866;48.020;11.720;2023-04-24T10:48:42;12.90;99.90
7648;DHT22;3866;48.020;11.720;2023-04-24T10:51:11;13.30;99.90
7648;DHT22;3866;48.020;11.720;2023-04-24T10:53:39;13.40;99.90
7648;DHT22;3866;48.020;11.720;2023-04-24T10:56:07;13.40;99.90
7648;DHT22;3866;48.020;11.720;2023-04-24T10:58:40;13.20;99.90
7648;DHT22;3866;48.020;11.720;2023-04-24T11:01:23;12.90;99.90
7648;DHT22;3866;48.020;11.720;2023-04-24T11:03:54;12.20;99.90
7648;DHT22;3866;48.020;11.720;2023-04-24T11:06:28;12.10;99.90
7648;DHT22;3866;48.020;11.720;2023-04-24T11:09:02;12.00;99.90
7648;DHT22;3866;48.020;11.720;2023-04-24T11:11:29;11.10;99.90
7648;DHT22;3866;48.020;11.720;2023-04-24T11:14:06;10.80;99.90
7648;DHT22;3866;48.020;11.720;2023-04-24T11:16:38;10.60;99.90
7648;DHT22;3866;48.020;11.720;2023-04-24T11:19:07;10.60;99.90
7648;DHT22;3866;48.020;11.720;2023-04-24T11:21:41;10.70;99.90
7648;DHT22;3866;48.020;11.720;2023-04-24T11:24:28;10.50;99.90
7648;DHT22;3866;48.020;11.720;2023-04-24T11:26:58;10.90;99.90
7648;DHT22;3866;48.020;11.720;2023-04-24T11:29:39;11.40;99.90
7648;DHT22;3866;48.020;11.720;2023-04-24T11:32:18;12.20;99.90
7648;DHT22;3866;48.020;11.720;2023-04-24T11:34:47;13.10;99.90
7648;DHT22;3866;48.020;11.720;2023-04-24T11:37:14;13.50;99.90
7648;DHT22;3866;48.020;11.720;2023-04-24T11:39:41;13.30;99.90
7648;DHT22;3866;48.020;11.720;2023-04-24T11:42:09;13.10;99.90
7648;DHT22;3866;48.020;11.720;2023-04-24T11:44:36;12.90;99.90
7648;DHT22;3866;48.020;11.720;2023-04-24T11:47:04;12.50;99.90
7648;DHT22;3866;48.020;11.720;2023-04-24T11:49:32;12.30;99.90
7648;DHT22;3866;48.020;11.720;2023-04-24T11:52:00;12.30;99.90
7648;DHT22;3866;48.020;11.720;2023-04-24T11:54:27;12.40;99.90
7648;DHT22;3866;48.020;11.720;2023-04-24T11:56:54;12.50;99.90
7648;DHT22;3866;48.020;11.720;2023-04-24T11:59:21;13.00;99.90
7648;DHT22;3866;48.020;11.720;2023-04-24T12:01:49;13.30;99.90
7648;DHT22;3866;48.020;11.720;2023-04-24T12:04:17;13.50;99.90
7648;DHT22;3866;48.020;11.720;2023-04-24T12:07:01;14.20;99.90
7648;DHT22;3866;48.020;11.720;2023-04-24T12:09:28;15.10;99.90
7648;DHT22;3866;48.020;11.720;2023-04-24T12:11:57;14.20;99.90
7648;DHT22;3866;48.020;11.720;2023-04-24T12:14:24;13.20;99.90
7648;DHT22;3866;48.020;11.720;2023-04-24T12:16:51;13.00;99.90
7648;DHT22;3866;48.020;11.720;2023-04-24T12:19:20;12.50;99.90
7648;DHT22;3866;48.020;11.720;2023-04-24T12:22:01;12.50;99.90
7648;DHT22;3866;48.020;11.720;2023-04-24T12:24:28;12.10;99.90
7648;DHT22;3866;48.020;11.720;2023-04-24T12:26:56;11.00;99.90
7648;DHT22;3866;48.020;11.720;2023-04-24T12:29:23;9.90;99.90
7648;DHT22;3866;48.020;11.720;2023-04-24T12:31:51;9.50;99.90
7648;DHT22;3866;48.020;11.720;2023-04-24T12:34:18;9.30;99.90
7648;DHT22;3866;48.020;11.720;2023-04-24T12:36:46;9.10;99.90
7648;DHT22;3866;48.020;11.720;2023-04-24T12:39:17;8.90;99.90
7648;DHT22;3866;48.020;11.720;2023-04-24T12:41:54;8.70;99.90
7648;DHT22;3866;48.020;11.720;2023-04-24T12:44:29;8.60;99.90
7648;DHT22;3866;48.020;11.720;2023-04-24T12:46:56;8.50;99.90
7648;DHT22;3866;48.020;11.720;2023-04-24T12:49:23;8.50;99.90
7648;DHT22;3866;48.020;11.720;2023-04-24T12:51:49;8.60;99.90
7648;DHT22;3866;48.020;11.720;2023-04-24T12:54:18;8.50;99.90
7648;DHT22;3866;48.020;11.720;2023-04-24T12:56:44;8.50;99.90
7648;DHT22;3866;48.020;11.720;2023-04-24T12:59:11;8.50;99.90
7648;DHT22;3866;48.020;11.720;2023-04-24T13:01:38;8.60;99.90
7648;DHT22;3866;48.020;11.720;2023-04-24T13:04:05;8.70;99.90
7648;DHT22;3866;48.020;11.720;2023-04-24T13:06:32;8.80;99.90
7648;DHT22;3866;48.020;11.720;2023-04-24T13:08:59;8.90;99.90
7648;DHT22;3866;48.020;11.720;2023-04-24T13:11:28;8.80;99.90
7648;DHT22;3866;48.020;11.720;2023-04-24T13:13:54;8.90;99.90
7648;DHT22;3866;48.020;11.720;2023-04-24T13:16:21;9.00;99.90
7648;DHT22;3866;48.020;11.720;2023-04-24T13:18:48;9.10;99.90
7648;DHT22;3866;48.020;11.720;2023-04-24T13:21:15;9.10;99.90
7648;DHT22;3866;48.020;11.720;2023-04-24T13:23:42;9.20;99.90
7648;DHT22;3866;48.020;11.720;2023-04-24T13:26:09;9.30;99.90
7648;DHT22;3866;48.020;11.720;2023-04-24T13:28:37;9.60;99.90
7648;DHT22;3866;48.020;11.720;2023-04-24T13:31:04;9.90;99.90
7648;DHT22;3866;48.020;11.720;2023-04-24T13:33:31;10.10;99.90
7648;DHT22;3866;48.020;11.720;2023-04-24T13:35:58;10.50;99.90
7648;DHT22;3866;48.020;11.720;2023-04-24T13:38:25;10.70;99.90
7648;DHT22;3866;48.020;11.720;2023-04-24T13:40:52;11.00;99.90
7648;DHT22;3866;48.020;11.720;2023-04-24T13:43:19;11.20;99.90
7648;DHT22;3866;48.020;11.720;2023-04-24T13:45:47;11.40;99.90
7648;DHT22;3866;48.020;11.720;2023-04-24T13:48:14;11.60;99.90
7648;DHT22;3866;48.020;11.720;2023-04-24T13:50:41;11.70;99.90
7648;DHT22;3866;48.020;11.720;2023-04-24T13:53:08;11.50;99.90
7648;DHT22;3866;48.020;11.720;2023-04-24T13:55:35;11.10;99.90
7648;DHT22;3866;48.020;11.720;2023-04-24T13:58:02;10.80;99.90
7648;DHT22;3866;48.020;11.720;2023-04-24T14:00:30;10.30;99.90
7648;DHT22;3866;48.020;11.720;2023-04-24T14:02:59;10.00;99.90
7648;DHT22;3866;48.020;11.720;2023-04-24T14:05:26;9.50;99.90
7648;DHT22;3866;48.020;11.720;2023-04-24T14:07:53;9.30;99.90
7648;DHT22;3866;48.020;11.720;2023-04-24T14:10:20;9.30;99.90
7648;DHT22;3866;48.020;11.720;2023-04-24T14:12:46;9.40;99.90
7648;DHT22;3866;48.020;11.720;2023-04-24T14:15:13;9.60;99.90
7648;DHT22;3866;48.020;11.720;2023-04-24T14:17:40;10.00;99.90
7648;DHT22;3866;48.020;11.720;2023-04-24T14:20:09;10.30;99.90
7648;DHT22;3866;48.020;11.720;2023-04-24T14:22:36;10.50;99.90
7648;DHT22;3866;48.020;11.720;2023-04-24T14:25:04;10.40;99.90
7648;DHT22;3866;48.020;11.720;2023-04-24T14:27:32;10.40;99.90
7648;DHT22;3866;48.020;11.720;2023-04-24T14:30:00;10.40;99.90
7648;DHT22;3866;48.020;11.720;2023-04-24T14:32:26;10.40;99.90
7648;DHT22;3866;48.020;11.720;2023-04-24T14:34:53;10.40;99.90
7648;DHT22;3866;48.020;11.720;2023-04-24T14:37:22;10.30;99.90
7648;DHT22;3866;48.020;11.720;2023-04-24T14:39:48;10.40;99.90
7648;DHT22;3866;48.020;11.720;2023-04-24T14:42:15;10.50;99.90
7648;DHT22;3866;48.020;11.720;2023-04-24T14:44:43;10.60;99.90
7648;DHT22;3866;48.020;11.720;2023-04-24T14:47:10;10.90;99.90
7648;DHT22;3866;48.020;11.720;2023-04-24T14:49:37;11.10;99.90
7648;DHT22;3866;48.020;11.720;2023-04-24T14:52:04;11.10;99.90
7648;DHT22;3866;48.020;11.720;2023-04-24T14:54:32;11.30;99.90
7648;DHT22;3866;48.020;11.720;2023-04-24T14:56:59;11.50;99.90
7648;DHT22;3866;48.020;11.720;2023-04-24T14:59:27;11.60;99.90
7648;DHT22;3866;48.020;11.720;2023-04-24T15:01:54;11.50;99.90
7648;DHT22;3866;48.020;11.720;2023-04-24T15:04:23;11.70;99.90
7648;DHT22;3866;48.020;11.720;2023-04-24T15:06:51;11.80;99.90
7648;DHT22;3866;48.020;11.720;2023-04-24T15:09:19;12.00;99.90
7648;DHT22;3866;48.020;11.720;2023-04-24T15:11:47;12.20;99.90
7648;DHT22;3866;48.020;11.720;2023-04-24T15:14:14;12.40;99.90
7648;DHT22;3866;48.020;11.720;2023-04-24T15:16:41;12.50;99.90
7648;DHT22;3866;48.020;11.720;2023-04-24T15:19:08;12.50;99.90
7648;DHT22;3866;48.020;11.720;2023-04-24T15:21:35;12.70;99.90
7648;DHT22;3866;48.020;11.720;2023-04-24T15:24:02;12.70;99.90
7648;DHT22;3866;48.020;11.720;2023-04-24T15:26:30;12.70;99.90
7648;DHT22;3866;48.020;11.720;2023-04-24T15:28:58;12.90;99.90
7648;DHT22;3866;48.020;11.720;2023-04-24T15:31:26;13.10;99.90
7648;DHT22;3866;48.020;11.720;2023-04-24T15:33:53;13.00;99.90
7648;DHT22;3866;48.020;11.720;2023-04-24T15:36:20;12.80;99.90
7648;DHT22;3866;48.020;11.720;2023-04-24T15:38:47;12.80;99.90
7648;DHT22;3866;48.020;11.720;2023-04-24T15:41:14;12.60;99.90
7648;DHT22;3866;48.020;11.720;2023-04-24T15:43:41;12.60;99.90
7648;DHT22;3866;48.020;11.720;2023-04-24T15:46:09;12.70;99.90
7648;DHT22;3866;48.020;11.720;2023-04-24T15:48:36;12.60;99.90
7648;DHT22;3866;48.020;11.720;2023-04-24T15:51:06;12.60;99.90
7648;DHT22;3866;48.020;11.720;2023-04-24T15:53:33;12.50;99.90
7648;DHT22;3866;48.020;11.720;2023-04-24T15:56:00;12.50;99.90
7648;DHT22;3866;48.020;11.720;2023-04-24T15:58:28;12.40;99.90